createdAt,value
2022-11-28T00:03:03.554Z,6.40
2022-11-28T00:06:28.963Z,6.40
2022-11-28T00:09:50.648Z,6.52
2022-11-28T00:13:12.555Z,6.58
2022-11-28T00:16:36.807Z,6.67
2022-11-28T00:20:00.658Z,6.74
2022-11-28T00:23:22.160Z,6.78
2022-11-28T00:26:45.974Z,6.85
2022-11-28T00:30:08.048Z,6.84
2022-11-28T00:33:30.990Z,6.81
2022-11-28T00:36:52.573Z,6.77
2022-11-28T00:40:14.183Z,6.88
2022-11-28T00:43:38.361Z,6.89
2022-11-28T00:47:02.402Z,6.86
2022-11-28T00:50:23.930Z,6.88
2022-11-28T00:53:49.689Z,6.75
2022-11-28T00:57:11.210Z,6.79
2022-11-28T01:00:35.887Z,6.86
2022-11-28T01:03:59.837Z,6.96
2022-11-28T01:07:23.949Z,6.91
2022-11-28T01:10:46.008Z,6.88
2022-11-28T01:14:08.509Z,6.93
2022-11-28T01:17:30.026Z,6.88
2022-11-28T01:20:51.584Z,6.92
2022-11-28T01:24:16.348Z,6.88
2022-11-28T01:27:37.882Z,6.82
2022-11-28T01:31:07.321Z,6.86
2022-11-28T01:34:28.930Z,6.86
2022-11-28T01:37:50.463Z,6.86
2022-11-28T01:41:15.350Z,6.81
2022-11-28T01:44:43.124Z,6.89
2022-11-28T01:48:05.059Z,6.86
2022-11-28T01:51:27.337Z,6.84
2022-11-28T01:54:53.179Z,6.91
2022-11-28T01:58:17.570Z,6.84
2022-11-28T02:01:39.667Z,6.84
2022-11-28T02:05:04.470Z,6.81
2022-11-28T02:08:26.114Z,6.84
2022-11-28T02:12:05.690Z,6.82
2022-11-28T02:16:09.754Z,6.75
2022-11-28T02:19:34.093Z,6.75
2022-11-28T02:23:33.440Z,6.68
2022-11-28T02:27:13.834Z,6.72
2022-11-28T02:31:03.201Z,6.85
2022-11-28T02:34:43.115Z,6.78
2022-11-28T02:38:17.590Z,6.77
2022-11-28T02:41:45.127Z,6.77
2022-11-28T02:45:15.552Z,6.77
2022-11-28T02:49:07.513Z,6.75
2022-11-28T02:52:36.392Z,6.77
2022-11-28T02:56:01.168Z,6.77
2022-11-28T02:59:37.325Z,6.82
2022-11-28T03:03:22.478Z,6.82
2022-11-28T03:06:43.977Z,6.78
2022-11-28T03:10:16.251Z,6.72
2022-11-28T03:14:38.191Z,6.69
2022-11-28T03:18:22.792Z,6.65
2022-11-28T03:21:49.254Z,6.64
2022-11-28T03:25:25.230Z,6.50
2022-11-28T03:29:03.687Z,6.48
2022-11-28T03:32:32.563Z,6.44
2022-11-28T03:35:59.748Z,6.27
2022-11-28T03:39:29.282Z,6.30
2022-11-28T03:43:00.548Z,6.23
2022-11-28T03:46:30.886Z,6.30
2022-11-28T03:49:55.235Z,6.29
2022-11-28T03:53:24.591Z,6.30
2022-11-28T03:56:57.414Z,6.27
2022-11-28T04:00:19.002Z,6.31
2022-11-28T04:04:17.995Z,6.29
2022-11-28T04:07:58.730Z,6.27
2022-11-28T04:11:31.368Z,6.33
2022-11-28T04:15:00.603Z,6.23
2022-11-28T04:18:42.243Z,6.24
2022-11-28T04:22:15.498Z,6.17
2022-11-28T04:25:41.606Z,6.13
2022-11-28T04:29:11.712Z,6.21
2022-11-28T04:32:37.592Z,6.16
2022-11-28T04:36:00.157Z,6.16
2022-11-28T04:39:25.275Z,5.90
2022-11-28T04:42:58.540Z,5.95
2022-11-28T04:46:31.702Z,5.83
2022-11-28T04:49:56.180Z,5.86
2022-11-28T04:53:43.299Z,5.85
2022-11-28T04:57:39.541Z,5.93
2022-11-28T05:01:06.050Z,6.00
2022-11-28T05:04:27.758Z,6.13
2022-11-28T05:07:49.553Z,6.14
2022-11-28T05:11:13.601Z,6.06
2022-11-28T05:14:35.340Z,5.99
2022-11-28T05:18:01.734Z,5.92
2022-11-28T05:21:23.281Z,5.90
2022-11-28T05:24:47.413Z,5.92
2022-11-28T05:28:11.513Z,5.88
2022-11-28T05:31:33.174Z,5.88
2022-11-28T05:34:59.598Z,5.59
2022-11-28T05:38:28.853Z,5.62
2022-11-28T05:41:50.430Z,5.71
2022-11-28T05:45:11.929Z,5.88
2022-11-28T05:48:33.449Z,5.85
2022-11-28T05:51:54.975Z,6.14
2022-11-28T05:55:21.283Z,7.33
2022-11-28T05:58:43.881Z,7.58
2022-11-28T06:02:05.740Z,7.81
2022-11-28T06:05:42.043Z,7.89
2022-11-28T06:09:05.363Z,7.54
2022-11-28T06:12:29.151Z,7.13
2022-11-28T06:15:50.717Z,6.85
2022-11-28T06:19:13.134Z,6.57
2022-11-28T06:22:39.526Z,6.48
2022-11-28T06:26:11.453Z,6.40
2022-11-28T06:29:33.383Z,6.31
2022-11-28T06:32:55.052Z,5.90
2022-11-28T06:36:18.341Z,5.85
2022-11-28T06:39:40.041Z,5.90
2022-11-28T06:43:04.347Z,6.02
2022-11-28T06:46:25.913Z,6.09
2022-11-28T06:49:50.000Z,6.23
2022-11-28T06:53:13.769Z,6.14
2022-11-28T06:56:35.569Z,6.63
2022-11-28T06:59:57.206Z,6.88
2022-11-28T07:03:18.764Z,7.36
2022-11-28T07:06:40.382Z,7.53
2022-11-28T07:10:05.131Z,7.60
2022-11-28T07:13:29.030Z,7.53
2022-11-28T07:16:50.794Z,7.44
2022-11-28T07:20:12.750Z,7.22
2022-11-28T07:23:34.295Z,6.85
2022-11-28T07:26:56.565Z,6.52
2022-11-28T07:30:20.479Z,6.48
2022-11-28T07:33:43.728Z,6.27
2022-11-28T07:37:05.341Z,6.36
2022-11-28T07:40:29.171Z,6.24
2022-11-28T07:43:54.246Z,6.05
2022-11-28T07:47:18.726Z,5.99
2022-11-28T07:50:40.390Z,6.10
2022-11-28T07:54:05.208Z,6.24
2022-11-28T07:57:26.834Z,6.36
2022-11-28T08:00:48.614Z,6.40
2022-11-28T08:04:10.641Z,6.50
2022-11-28T08:07:32.251Z,6.65
2022-11-28T08:10:58.915Z,6.81
2022-11-28T08:14:20.446Z,7.26
2022-11-28T08:17:42.052Z,7.65
2022-11-28T08:21:09.107Z,7.89
2022-11-28T08:24:30.702Z,8.23
2022-11-28T08:27:52.240Z,8.37
2022-11-28T08:31:17.780Z,8.16
2022-11-28T08:34:41.884Z,7.95
2022-11-28T08:38:03.437Z,7.72
2022-11-28T08:41:24.980Z,7.58
2022-11-28T08:44:49.786Z,7.37
2022-11-28T08:48:13.389Z,7.27
2022-11-28T08:51:35.022Z,7.05
2022-11-28T08:54:59.034Z,6.91
2022-11-28T08:58:22.667Z,6.74
2022-11-28T09:01:44.277Z,6.84
2022-11-28T09:05:09.129Z,6.81
2022-11-28T09:08:30.653Z,6.69
2022-11-28T09:11:54.720Z,6.61
2022-11-28T09:15:20.998Z,6.52
2022-11-28T09:18:47.598Z,6.47
2022-11-28T09:22:09.316Z,6.40
2022-11-28T09:25:30.950Z,6.27
2022-11-28T09:28:53.708Z,6.26
2022-11-28T09:32:17.628Z,6.31
2022-11-28T09:35:42.076Z,6.17
2022-11-28T09:39:03.786Z,6.06
2022-11-28T09:42:43.565Z,6.21
2022-11-28T09:46:11.558Z,6.37
2022-11-28T09:49:44.609Z,6.24
2022-11-28T09:53:25.224Z,6.17
2022-11-28T09:56:51.041Z,6.21
2022-11-28T10:00:21.595Z,6.19
2022-11-28T10:03:46.125Z,6.48
2022-11-28T10:07:22.603Z,6.55
2022-11-28T10:11:11.674Z,6.57
2022-11-28T10:15:17.875Z,6.65
2022-11-28T10:18:45.539Z,6.50
2022-11-28T10:22:19.026Z,6.37
2022-11-28T10:25:42.515Z,6.30
2022-11-28T10:29:27.907Z,6.33
2022-11-28T10:33:17.782Z,6.41
2022-11-28T10:36:47.713Z,6.36
2022-11-28T10:40:34.932Z,6.31
2022-11-28T10:44:02.338Z,6.21
2022-11-28T10:47:45.077Z,6.13
2022-11-28T10:51:18.554Z,6.17
2022-11-28T10:54:43.132Z,6.24
2022-11-28T10:58:19.269Z,6.11
2022-11-28T11:01:43.740Z,6.23
2022-11-28T11:05:15.268Z,6.23
2022-11-28T11:08:39.195Z,6.23
2022-11-28T11:12:01.100Z,6.27
2022-11-28T11:15:36.189Z,6.30
2022-11-28T11:18:57.766Z,5.93
2022-11-28T11:22:28.336Z,5.93
2022-11-28T11:25:53.497Z,6.02
2022-11-28T11:29:30.972Z,5.78
2022-11-28T11:32:55.986Z,5.99
2022-11-28T11:36:31.579Z,6.14
2022-11-28T11:39:53.521Z,6.23
2022-11-28T11:43:37.850Z,6.38
2022-11-28T11:47:07.476Z,6.44
2022-11-28T11:50:31.848Z,6.40
2022-11-28T11:54:18.666Z,6.45
2022-11-28T11:57:46.210Z,6.54
2022-11-28T12:01:08.675Z,6.54
2022-11-28T12:04:47.904Z,6.63
2022-11-28T12:08:44.048Z,6.54
2022-11-28T12:12:11.637Z,6.50
2022-11-28T12:15:44.082Z,6.59
2022-11-28T12:19:23.732Z,6.65
2022-11-28T12:23:17.343Z,6.61
2022-11-28T12:26:45.651Z,6.58
2022-11-28T12:30:26.416Z,6.51
2022-11-28T12:34:06.264Z,6.50
2022-11-28T12:37:42.557Z,6.65
2022-11-28T12:41:49.741Z,6.63
2022-11-28T12:45:22.242Z,6.69
2022-11-28T12:49:07.184Z,6.69
2022-11-28T12:52:43.564Z,6.75
2022-11-28T12:56:23.391Z,6.63
2022-11-28T13:00:08.151Z,6.48
2022-11-28T13:04:04.531Z,6.52
2022-11-28T13:07:34.931Z,6.59
2022-11-28T13:11:33.613Z,6.68
2022-11-28T13:15:17.442Z,6.74
2022-11-28T13:18:49.755Z,6.72
2022-11-28T13:22:11.280Z,6.68
2022-11-28T13:25:49.841Z,6.65
2022-11-28T13:29:30.927Z,6.52
2022-11-28T13:33:01.503Z,6.54
2022-11-28T13:40:51.643Z,6.61
2022-11-28T13:44:25.592Z,6.61
2022-11-28T13:47:47.574Z,6.47
2022-11-28T13:51:19.880Z,6.42
2022-11-28T13:54:48.821Z,6.34
2022-11-28T13:58:17.499Z,6.27
2022-11-28T14:01:53.451Z,6.38
2022-11-28T14:05:28.359Z,6.24
2022-11-28T14:09:09.270Z,6.27
2022-11-28T14:12:55.728Z,6.24
2022-11-28T14:16:50.077Z,6.20
2022-11-28T14:20:25.939Z,6.03
2022-11-28T14:24:02.206Z,6.75
2022-11-28T14:27:27.851Z,7.61
2022-11-28T14:30:50.180Z,7.89
2022-11-28T14:34:46.248Z,8.02
2022-11-28T14:38:30.366Z,8.01
2022-11-28T14:42:04.300Z,7.60
2022-11-28T14:45:44.586Z,7.07
2022-11-28T14:49:24.517Z,6.67
2022-11-28T14:52:47.907Z,6.40
2022-11-28T14:56:15.646Z,6.13
2022-11-28T14:59:41.916Z,5.99
2022-11-28T15:03:21.249Z,5.85
2022-11-28T15:06:43.692Z,5.85
2022-11-28T15:10:09.842Z,5.78
2022-11-28T15:13:49.596Z,5.63
2022-11-28T15:17:14.428Z,5.50
2022-11-28T15:20:43.224Z,5.58
2022-11-28T15:24:14.540Z,5.88
2022-11-28T15:27:38.985Z,6.24
2022-11-28T15:31:05.771Z,6.50
2022-11-28T15:34:30.667Z,6.71
2022-11-28T15:38:01.067Z,6.82
2022-11-28T15:41:27.554Z,6.93
2022-11-28T15:44:58.014Z,6.79
2022-11-28T15:48:28.728Z,6.40
2022-11-28T15:52:01.719Z,6.05
2022-11-28T15:55:23.764Z,5.72
2022-11-28T15:58:48.469Z,5.43
2022-11-28T16:02:23.541Z,5.23
2022-11-28T16:05:47.413Z,5.20
2022-11-28T16:09:17.981Z,5.07
2022-11-28T16:12:41.259Z,5.03
2022-11-28T16:16:14.892Z,4.93
2022-11-28T16:19:37.991Z,4.82
2022-11-28T16:23:08.189Z,4.80
2022-11-28T16:26:37.697Z,5.09
2022-11-28T16:30:00.719Z,5.58
2022-11-28T16:33:41.886Z,5.99
2022-11-28T16:37:11.560Z,6.16
2022-11-28T16:40:33.270Z,6.20
2022-11-28T16:44:07.310Z,6.26
2022-11-28T16:47:31.050Z,6.34
2022-11-28T16:51:01.802Z,5.89
2022-11-28T16:54:31.873Z,5.48
2022-11-28T16:58:08.447Z,5.35
2022-11-28T17:01:33.178Z,5.56
2022-11-28T17:04:54.762Z,5.50
2022-11-28T17:08:18.528Z,5.73
2022-11-28T17:11:46.322Z,5.86
2022-11-28T17:15:16.622Z,5.99
2022-11-28T17:18:38.142Z,6.07
2022-11-28T17:21:59.974Z,5.62
2022-11-28T17:25:21.491Z,5.30
2022-11-28T17:28:43.131Z,4.96
2022-11-28T17:32:10.682Z,4.62
2022-11-28T17:35:41.163Z,4.48
2022-11-28T17:39:05.501Z,4.25
2022-11-28T17:42:27.097Z,4.37
2022-11-28T17:45:50.675Z,4.34
2022-11-28T17:49:14.646Z,4.33
2022-11-28T17:52:36.170Z,4.77
2022-11-28T17:55:59.809Z,4.86
2022-11-28T17:59:27.034Z,5.23
2022-11-28T18:02:51.163Z,5.52
2022-11-28T18:06:20.027Z,5.72
2022-11-28T18:09:41.624Z,5.72
2022-11-28T18:13:03.743Z,5.72
2022-11-28T18:16:27.785Z,5.54
2022-11-28T18:19:57.449Z,5.17
2022-11-28T18:23:19.444Z,4.59
2022-11-28T18:26:41.002Z,4.33
2022-11-28T18:30:02.750Z,4.14
2022-11-28T18:33:26.778Z,4.03
2022-11-28T18:36:50.469Z,3.91
2022-11-28T18:40:13.146Z,3.85
2022-11-28T18:43:37.460Z,3.90
2022-11-28T18:47:01.388Z,4.40
2022-11-28T18:50:22.918Z,4.68
2022-11-28T18:53:44.889Z,4.96
2022-11-28T18:57:09.046Z,5.22
2022-11-28T19:00:30.543Z,5.17
2022-11-28T19:03:57.378Z,5.40
2022-11-28T19:07:19.186Z,5.24
2022-11-28T19:10:44.344Z,5.43
2022-11-28T19:14:07.843Z,5.19
2022-11-28T19:17:29.735Z,4.79
2022-11-28T19:20:51.334Z,4.58
2022-11-28T19:24:13.374Z,4.41
2022-11-28T19:27:34.977Z,4.17
2022-11-28T19:30:57.929Z,4.01
2022-11-28T19:34:19.669Z,3.97
2022-11-28T19:37:46.102Z,3.75
2022-11-28T19:41:08.149Z,3.65
2022-11-28T19:44:30.655Z,3.79
2022-11-28T19:47:52.154Z,4.10
2022-11-28T19:51:14.427Z,4.52
2022-11-28T19:54:38.471Z,4.96
2022-11-28T19:58:00.126Z,4.97
2022-11-28T20:01:23.764Z,5.19
2022-11-28T20:04:48.424Z,5.27
2022-11-28T20:08:14.679Z,5.28
2022-11-28T20:11:42.108Z,5.19
2022-11-28T20:15:04.267Z,5.34
2022-11-28T20:18:26.360Z,5.30
2022-11-28T20:21:50.614Z,5.31
2022-11-28T20:25:19.322Z,4.90
2022-11-28T20:28:43.072Z,4.55
2022-11-28T20:32:04.824Z,4.48
2022-11-28T20:35:27.509Z,4.47
2022-11-28T20:38:52.325Z,4.79
2022-11-28T20:42:13.885Z,4.87
2022-11-28T20:45:37.719Z,4.99
2022-11-28T20:49:07.374Z,5.17
2022-11-28T20:52:33.777Z,5.00
2022-11-28T20:56:00.568Z,4.93
2022-11-28T20:59:22.291Z,4.58
2022-11-28T21:02:45.119Z,4.37
2022-11-28T21:06:09.531Z,4.33
2022-11-28T21:09:31.080Z,4.11
2022-11-28T21:12:52.739Z,3.87
2022-11-28T21:16:19.008Z,3.75
2022-11-28T21:19:43.691Z,3.79
2022-11-28T21:23:05.426Z,3.73
2022-11-28T21:26:33.075Z,3.76
2022-11-28T21:30:02.288Z,3.94
2022-11-28T21:33:23.848Z,4.18
2022-11-28T21:36:45.940Z,4.42
2022-11-28T21:40:10.775Z,4.83
2022-11-28T21:43:32.367Z,5.10
2022-11-28T21:46:56.554Z,5.31
2022-11-28T21:50:18.269Z,5.44
2022-11-28T21:53:39.834Z,5.37
2022-11-28T21:57:03.821Z,5.16
2022-11-28T22:00:51.982Z,4.89
2022-11-28T22:04:10.468Z,4.64
2022-11-28T22:07:34.392Z,4.49
2022-11-28T22:11:00.875Z,4.45
2022-11-28T22:14:22.398Z,4.25
2022-11-28T22:17:43.927Z,4.20
2022-11-28T22:21:28.493Z,4.20
2022-11-28T22:24:50.514Z,4.14
2022-11-28T22:28:12.126Z,4.16
2022-11-28T22:31:35.814Z,4.04
2022-11-28T22:35:01.449Z,3.97
2022-11-28T22:38:25.283Z,4.06
2022-11-28T22:41:49.364Z,3.97
2022-11-28T22:45:10.958Z,3.99
2022-11-28T22:48:33.615Z,4.07
2022-11-28T22:51:55.163Z,3.99
2022-11-28T22:55:21.326Z,3.93
2022-11-28T22:58:45.143Z,3.90
2022-11-28T23:02:09.973Z,3.89
2022-11-28T23:05:33.862Z,3.82
2022-11-28T23:08:57.459Z,3.78
2022-11-28T23:12:19.222Z,4.00
2022-11-28T23:15:45.184Z,4.03
2022-11-28T23:19:13.128Z,3.90
2022-11-28T23:22:35.685Z,3.83
2022-11-28T23:26:03.719Z,3.75
2022-11-28T23:29:26.597Z,3.62
2022-11-28T23:32:48.093Z,3.54
2022-11-28T23:36:18.589Z,3.55
2022-11-28T23:39:42.426Z,3.51
2022-11-28T23:43:03.938Z,3.72
2022-11-28T23:46:29.707Z,3.72
2022-11-28T23:49:51.275Z,3.70
2022-11-28T23:53:13.013Z,3.78
2022-11-28T23:56:36.634Z,3.87
